createdAt,value
2023-04-07T00:01:48.804Z,6.75
2023-04-07T00:04:15.557Z,7.07
2023-04-07T00:06:42.259Z,6.63
2023-04-07T00:09:09.612Z,7.97
2023-04-07T00:11:36.355Z,7.65
2023-04-07T00:14:03.357Z,8.50
2023-04-07T00:16:30.054Z,8.00
2023-04-07T00:18:56.637Z,8.63
2023-04-07T00:21:23.813Z,9.80
2023-04-07T00:23:50.352Z,10.10
2023-04-07T00:26:16.788Z,10.18
2023-04-07T00:28:43.487Z,12.50
2023-04-07T00:31:10.312Z,13.60
2023-04-07T00:33:36.924Z,14.18
2023-04-07T00:36:04.209Z,14.20
2023-04-07T00:38:30.942Z,13.90
2023-04-07T00:40:58.769Z,13.13
2023-04-07T00:43:25.704Z,12.60
2023-04-07T00:45:54.376Z,12.80
2023-04-07T00:48:21.562Z,13.82
2023-04-07T00:50:48.196Z,12.27
2023-04-07T00:53:15.475Z,13.17
2023-04-07T00:55:42.428Z,12.90
2023-04-07T00:58:08.979Z,12.70
2023-04-07T01:00:49.297Z,12.90
2023-04-07T01:03:49.363Z,12.00
2023-04-07T01:06:20.360Z,12.80
2023-04-07T01:09:10.409Z,12.35
2023-04-07T01:11:48.540Z,13.15
2023-04-07T01:14:18.708Z,12.30
2023-04-07T01:16:52.499Z,12.55
2023-04-07T01:19:32.155Z,13.23
2023-04-07T01:22:00.273Z,13.38
2023-04-07T01:24:51.413Z,12.18
2023-04-07T01:28:02.236Z,13.27
2023-04-07T01:30:31.541Z,12.23
2023-04-07T01:33:00.501Z,12.10
2023-04-07T01:35:30.872Z,12.20
2023-04-07T01:37:59.482Z,12.60
2023-04-07T01:40:27.082Z,11.38
2023-04-07T01:42:55.650Z,10.93
2023-04-07T01:45:22.742Z,11.33
2023-04-07T01:47:50.373Z,10.65
2023-04-07T01:50:17.260Z,11.43
2023-04-07T01:52:44.843Z,11.40
2023-04-07T01:55:11.404Z,12.07
2023-04-07T01:57:38.167Z,11.87
2023-04-07T02:00:06.341Z,11.65
2023-04-07T02:02:41.601Z,10.80
2023-04-07T02:05:12.624Z,11.35
2023-04-07T02:08:01.376Z,11.32
2023-04-07T02:10:29.792Z,11.10
2023-04-07T02:12:58.749Z,11.00
2023-04-07T02:15:26.744Z,11.93
2023-04-07T02:17:56.272Z,11.30
2023-04-07T02:20:24.286Z,10.68
2023-04-07T02:22:50.899Z,11.40
2023-04-07T02:25:36.309Z,12.02
2023-04-07T02:28:05.199Z,10.75
2023-04-07T02:30:33.572Z,12.68
2023-04-07T02:33:00.267Z,12.63
2023-04-07T02:35:26.983Z,12.20
2023-04-07T02:37:54.124Z,12.52
2023-04-07T02:40:20.758Z,11.88
2023-04-07T02:42:47.318Z,13.45
2023-04-07T02:45:13.961Z,12.05
2023-04-07T02:47:40.488Z,10.03
2023-04-07T02:50:07.518Z,11.80
2023-04-07T02:52:33.997Z,11.52
2023-04-07T02:55:00.655Z,11.23
2023-04-07T02:57:27.320Z,10.52
2023-04-07T02:59:53.932Z,12.00
2023-04-07T03:02:20.405Z,12.52
2023-04-07T03:04:46.890Z,10.40
2023-04-07T03:07:13.328Z,10.43
2023-04-07T03:09:39.765Z,12.32
2023-04-07T03:12:06.375Z,10.30
2023-04-07T03:14:32.917Z,11.90
2023-04-07T03:16:59.430Z,11.50
2023-04-07T03:19:26.016Z,12.00
2023-04-07T03:21:52.541Z,12.18
2023-04-07T03:24:19.112Z,11.70
2023-04-07T03:26:45.824Z,11.45
2023-04-07T03:29:12.529Z,12.50
2023-04-07T03:31:39.085Z,10.65
2023-04-07T03:34:05.714Z,10.82
2023-04-07T03:36:32.211Z,11.07
2023-04-07T03:38:58.740Z,12.48
2023-04-07T03:41:27.321Z,12.10
2023-04-07T03:43:54.077Z,10.57
2023-04-07T03:46:21.046Z,11.38
2023-04-07T03:48:47.634Z,11.10
2023-04-07T03:51:14.206Z,12.48
2023-04-07T03:53:40.676Z,12.70
2023-04-07T03:56:07.484Z,12.65
2023-04-07T03:58:34.133Z,12.82
2023-04-07T04:01:00.710Z,11.23
2023-04-07T04:03:27.537Z,12.82
2023-04-07T04:05:54.163Z,12.27
2023-04-07T04:08:20.799Z,12.07
2023-04-07T04:10:47.358Z,11.75
2023-04-07T04:13:13.902Z,11.27
2023-04-07T04:15:40.462Z,11.38
2023-04-07T04:18:07.014Z,11.05
2023-04-07T04:20:33.525Z,11.38
2023-04-07T04:23:00.154Z,11.25
2023-04-07T04:25:26.655Z,10.50
2023-04-07T04:27:55.465Z,10.93
2023-04-07T04:30:22.195Z,10.10
2023-04-07T04:32:48.758Z,9.82
2023-04-07T04:35:15.361Z,10.15
2023-04-07T04:37:41.913Z,9.50
2023-04-07T04:40:09.097Z,9.75
2023-04-07T04:42:35.990Z,8.82
2023-04-07T04:45:04.560Z,9.00
2023-04-07T04:47:31.136Z,9.05
2023-04-07T04:49:57.859Z,9.13
2023-04-07T04:52:24.378Z,8.85
2023-04-07T04:54:50.922Z,9.25
2023-04-07T04:57:17.471Z,8.93
2023-04-07T04:59:43.908Z,10.07
2023-04-07T05:02:10.526Z,8.63
2023-04-07T05:04:37.287Z,8.95
2023-04-07T05:07:04.308Z,9.35
2023-04-07T05:09:31.454Z,9.25
2023-04-07T05:11:58.006Z,9.07
2023-04-07T05:14:24.550Z,9.30
2023-04-07T05:16:51.365Z,10.32
2023-04-07T05:19:18.000Z,8.93
2023-04-07T05:21:44.567Z,9.55
2023-04-07T05:24:11.184Z,10.30
2023-04-07T05:26:37.621Z,9.07
2023-04-07T05:29:04.176Z,8.95
2023-04-07T05:31:30.827Z,8.73
2023-04-07T05:33:57.428Z,9.38
2023-04-07T05:36:24.020Z,9.63
2023-04-07T05:38:50.601Z,9.20
2023-04-07T05:41:17.239Z,8.88
2023-04-07T05:43:43.681Z,9.70
2023-04-07T05:46:10.253Z,9.15
2023-04-07T05:48:36.826Z,9.82
2023-04-07T05:51:03.418Z,8.57
2023-04-07T05:53:29.988Z,8.73
2023-04-07T05:55:56.427Z,10.70
2023-04-07T05:58:22.985Z,8.90
2023-04-07T06:00:50.278Z,8.85
2023-04-07T06:03:16.935Z,8.57
2023-04-07T06:05:46.582Z,9.05
2023-04-07T06:08:13.210Z,8.65
2023-04-07T06:10:40.424Z,8.77
2023-04-07T06:13:07.049Z,8.35
2023-04-07T06:15:33.520Z,8.00
2023-04-07T06:18:00.258Z,7.95
2023-04-07T06:20:26.928Z,8.25
2023-04-07T06:22:54.484Z,7.57
2023-04-07T06:25:20.993Z,8.30
2023-04-07T06:27:47.485Z,7.40
2023-04-07T06:30:14.504Z,8.18
2023-04-07T06:32:41.030Z,8.02
2023-04-07T06:35:08.062Z,7.88
2023-04-07T06:37:34.648Z,7.95
2023-04-07T06:40:01.259Z,8.23
2023-04-07T06:42:27.759Z,8.38
2023-04-07T06:44:54.211Z,7.28
2023-04-07T06:47:20.669Z,8.35
2023-04-07T06:49:47.153Z,8.05
2023-04-07T06:52:13.629Z,6.73
2023-04-07T06:54:40.189Z,7.47
2023-04-07T06:57:06.643Z,7.32
2023-04-07T06:59:33.102Z,6.97
2023-04-07T07:01:59.791Z,6.65
2023-04-07T07:04:26.471Z,6.80
2023-04-07T07:06:53.151Z,7.10
2023-04-07T07:09:19.708Z,6.38
2023-04-07T07:11:46.243Z,6.38
2023-04-07T07:14:12.850Z,6.82
2023-04-07T07:16:39.542Z,7.00
2023-04-07T07:19:06.319Z,7.13
2023-04-07T07:21:32.954Z,7.00
2023-04-07T07:23:59.508Z,6.95
2023-04-07T07:26:26.046Z,6.63
2023-04-07T07:28:53.588Z,6.03
2023-04-07T07:31:20.296Z,5.60
2023-04-07T07:33:48.397Z,5.70
2023-04-07T07:36:16.212Z,5.15
2023-04-07T07:38:42.792Z,5.15
2023-04-07T07:41:09.333Z,4.37
2023-04-07T07:43:35.904Z,4.40
2023-04-07T07:46:02.560Z,4.30
2023-04-07T07:48:29.370Z,3.88
2023-04-07T07:50:56.013Z,4.10
2023-04-07T07:53:23.018Z,4.00
2023-04-07T07:55:49.510Z,4.18
2023-04-07T07:58:16.088Z,4.10
2023-04-07T08:00:42.514Z,4.30
2023-04-07T08:03:09.311Z,3.80
2023-04-07T08:05:35.936Z,3.40
2023-04-07T08:08:02.676Z,3.50
2023-04-07T08:10:29.320Z,3.53
2023-04-07T08:12:55.843Z,4.20
2023-04-07T08:15:22.438Z,3.72
2023-04-07T08:17:48.930Z,3.83
2023-04-07T08:20:15.546Z,3.65
2023-04-07T08:22:42.061Z,4.20
2023-04-07T08:25:08.653Z,3.22
2023-04-07T08:27:35.151Z,3.20
2023-04-07T08:30:03.814Z,3.77
2023-04-07T08:32:41.706Z,3.65
2023-04-07T08:35:08.721Z,3.70
2023-04-07T08:37:35.730Z,3.38
2023-04-07T08:40:03.118Z,4.03
2023-04-07T08:42:32.735Z,3.33
2023-04-07T08:45:06.781Z,3.05
2023-04-07T08:47:35.344Z,2.70
2023-04-07T08:50:10.068Z,2.65
2023-04-07T08:52:36.457Z,3.45
2023-04-07T08:55:04.280Z,3.00
2023-04-07T08:57:31.495Z,2.70
2023-04-07T09:00:02.545Z,3.03
2023-04-07T09:02:29.413Z,2.80
2023-04-07T09:04:56.498Z,2.38
2023-04-07T09:07:23.012Z,2.60
2023-04-07T09:09:49.503Z,2.78
2023-04-07T09:12:16.072Z,2.95
2023-04-07T09:14:42.644Z,3.30
2023-04-07T09:17:09.192Z,3.33
2023-04-07T09:19:35.873Z,3.07
2023-04-07T09:22:02.449Z,3.35
2023-04-07T09:24:30.001Z,3.30
2023-04-07T09:27:17.748Z,3.28
2023-04-07T09:29:46.382Z,3.10
2023-04-07T09:32:37.121Z,2.93
2023-04-07T09:35:03.786Z,2.88
2023-04-07T09:37:30.271Z,3.42
2023-04-07T09:39:56.778Z,3.45
2023-04-07T09:42:23.427Z,3.20
2023-04-07T09:44:50.023Z,3.73
2023-04-07T09:47:16.651Z,3.72
2023-04-07T09:49:50.972Z,3.67
2023-04-07T09:52:17.570Z,3.30
2023-04-07T09:54:44.233Z,3.67
2023-04-07T09:57:12.069Z,3.60
2023-04-07T09:59:40.684Z,5.75
2023-04-07T10:02:08.856Z,5.40
2023-04-07T10:04:35.557Z,4.90
2023-04-07T10:07:02.131Z,4.57
2023-04-07T10:09:30.011Z,4.27
2023-04-07T10:11:57.987Z,3.50
2023-04-07T10:14:27.886Z,3.55
2023-04-07T10:16:54.895Z,3.60
2023-04-07T10:19:22.517Z,3.40
2023-04-07T10:21:52.658Z,3.70
2023-04-07T10:24:43.304Z,3.55
2023-04-07T10:27:13.896Z,3.55
2023-04-07T10:29:46.518Z,3.25
2023-04-07T10:32:13.519Z,2.97
2023-04-07T10:34:52.204Z,3.23
2023-04-07T10:37:19.475Z,3.67
2023-04-07T10:39:46.204Z,3.50
2023-04-07T10:42:37.727Z,2.83
2023-04-07T10:45:09.268Z,2.55
2023-04-07T10:47:55.172Z,2.33
2023-04-07T10:50:23.205Z,3.03
2023-04-07T10:53:04.918Z,3.53
2023-04-07T10:55:54.129Z,3.60
2023-04-07T10:58:30.041Z,3.35
2023-04-07T11:01:08.583Z,2.80
2023-04-07T11:03:42.393Z,2.80
2023-04-07T11:06:13.616Z,2.38
2023-04-07T11:08:45.685Z,2.00
2023-04-07T11:11:16.200Z,2.33
2023-04-07T11:13:43.292Z,2.57
2023-04-07T11:16:10.579Z,2.70
2023-04-07T11:18:37.906Z,2.90
2023-04-07T11:21:05.399Z,3.47
2023-04-07T11:23:40.096Z,3.60
2023-04-07T11:26:07.178Z,3.23
2023-04-07T11:28:33.689Z,3.60
2023-04-07T11:31:00.525Z,3.30
2023-04-07T11:33:29.008Z,2.83
2023-04-07T11:35:57.936Z,2.60
2023-04-07T11:38:36.364Z,2.47
2023-04-07T11:41:14.364Z,2.78
2023-04-07T11:43:41.567Z,2.88
2023-04-07T11:46:11.111Z,3.00
2023-04-07T11:48:39.500Z,3.40
2023-04-07T11:51:06.734Z,4.47
2023-04-07T11:53:37.221Z,4.45
2023-04-07T11:56:06.381Z,4.00
2023-04-07T11:58:33.596Z,3.92
2023-04-07T12:01:01.924Z,3.92
2023-04-07T12:03:28.498Z,4.07
2023-04-07T12:05:55.252Z,4.18
2023-04-07T12:08:21.694Z,3.90
2023-04-07T12:10:48.224Z,4.35
2023-04-07T12:13:14.723Z,4.10
2023-04-07T12:15:41.203Z,4.17
2023-04-07T12:18:08.419Z,3.33
2023-04-07T12:20:37.197Z,3.55
2023-04-07T12:23:04.261Z,3.47
2023-04-07T12:25:32.946Z,3.30
2023-04-07T12:27:59.453Z,3.37
2023-04-07T12:30:25.943Z,3.40
2023-04-07T12:32:52.619Z,2.97
2023-04-07T12:35:19.145Z,3.72
2023-04-07T12:37:45.613Z,3.63
2023-04-07T12:40:12.515Z,3.73
2023-04-07T12:42:39.808Z,3.70
2023-04-07T12:45:06.798Z,3.40
2023-04-07T12:47:33.476Z,3.50
2023-04-07T12:50:00.256Z,3.35
2023-04-07T12:52:26.813Z,3.43
2023-04-07T12:54:53.568Z,3.47
2023-04-07T12:57:20.093Z,3.50
2023-04-07T12:59:46.555Z,3.40
2023-04-07T13:02:13.205Z,3.75
2023-04-07T13:04:40.820Z,3.07
2023-04-07T13:07:08.906Z,3.15
2023-04-07T13:09:35.537Z,3.28
2023-04-07T13:12:02.349Z,3.00
2023-04-07T13:14:28.911Z,3.08
2023-04-07T13:16:55.550Z,2.60
2023-04-07T13:19:22.170Z,2.72
2023-04-07T13:21:48.824Z,2.85
2023-04-07T13:24:15.352Z,3.05
2023-04-07T13:26:41.960Z,2.90
2023-04-07T13:29:08.619Z,3.30
2023-04-07T13:31:35.274Z,4.70
2023-04-07T13:34:01.896Z,3.30
2023-04-07T13:36:28.493Z,3.90
2023-04-07T13:38:55.045Z,3.38
2023-04-07T13:41:21.570Z,3.10
2023-04-07T13:43:48.754Z,3.55
2023-04-07T13:46:27.352Z,3.10
2023-04-07T13:48:55.446Z,3.30
2023-04-07T13:51:22.069Z,3.92
2023-04-07T13:53:48.862Z,4.07
2023-04-07T13:56:15.632Z,4.20
2023-04-07T13:58:42.214Z,4.47
2023-04-07T14:01:08.815Z,4.10
2023-04-07T14:03:35.455Z,4.63
2023-04-07T14:06:02.751Z,4.50
2023-04-07T14:08:29.411Z,3.42
2023-04-07T14:10:56.020Z,3.22
2023-04-07T14:13:22.801Z,3.42
2023-04-07T14:15:50.262Z,3.80
2023-04-07T14:18:16.929Z,3.30
2023-04-07T14:20:43.499Z,3.33
2023-04-07T14:23:10.163Z,3.60
2023-04-07T14:25:36.701Z,3.80
2023-04-07T14:28:03.399Z,4.20
2023-04-07T14:30:30.003Z,4.20
2023-04-07T14:32:56.724Z,4.15
2023-04-07T14:35:23.233Z,4.13
2023-04-07T14:37:49.682Z,4.55
2023-04-07T14:40:16.159Z,5.25
2023-04-07T14:42:42.660Z,4.90
2023-04-07T14:45:09.630Z,4.43
2023-04-07T14:47:36.151Z,3.90
2023-04-07T14:50:02.659Z,3.90
2023-04-07T14:52:29.312Z,4.32
2023-04-07T14:54:56.950Z,4.40
2023-04-07T14:57:24.448Z,4.55
2023-04-07T14:59:51.008Z,3.88
2023-04-07T15:02:17.671Z,4.43
2023-04-07T15:04:44.368Z,4.18
2023-04-07T15:07:11.043Z,4.07
2023-04-07T15:09:37.476Z,3.95
2023-04-07T15:12:03.882Z,3.95
2023-04-07T15:14:30.483Z,4.07
2023-04-07T15:16:57.080Z,3.97
2023-04-07T15:19:23.588Z,3.80
2023-04-07T15:21:50.114Z,3.75
2023-04-07T15:24:16.884Z,4.47
2023-04-07T15:26:43.522Z,4.07
2023-04-07T15:29:10.303Z,4.55
2023-04-07T15:31:36.868Z,4.80
2023-04-07T15:34:03.468Z,4.75
2023-04-07T15:36:30.274Z,4.68
2023-04-07T15:38:57.381Z,4.15
2023-04-07T15:41:23.912Z,4.45
2023-04-07T15:43:51.281Z,4.50
2023-04-07T15:46:17.828Z,3.65
2023-04-07T15:48:44.506Z,4.55
2023-04-07T15:51:11.037Z,4.55
2023-04-07T15:53:37.647Z,4.70
2023-04-07T15:56:04.419Z,4.53
2023-04-07T15:58:31.784Z,5.25
2023-04-07T16:00:59.549Z,7.35
2023-04-07T16:03:26.320Z,5.30
2023-04-07T16:05:53.011Z,5.63
2023-04-07T16:08:19.796Z,4.80
2023-04-07T16:10:46.429Z,5.10
2023-04-07T16:13:12.953Z,4.88
2023-04-07T16:15:41.068Z,4.57
2023-04-07T16:18:11.200Z,5.00
2023-04-07T16:20:38.052Z,4.50
2023-04-07T16:23:04.583Z,4.70
2023-04-07T16:25:31.434Z,4.28
2023-04-07T16:27:58.040Z,4.80
2023-04-07T16:30:24.685Z,6.07
2023-04-07T16:32:51.203Z,3.87
2023-04-07T16:35:17.663Z,4.18
2023-04-07T16:37:44.300Z,4.57
2023-04-07T16:40:10.948Z,3.97
2023-04-07T16:42:37.501Z,4.78
2023-04-07T16:45:05.031Z,4.73
2023-04-07T16:47:32.072Z,4.68
2023-04-07T16:49:59.638Z,4.78
2023-04-07T16:52:26.206Z,4.40
2023-04-07T16:54:52.805Z,4.40
2023-04-07T16:57:19.412Z,4.70
2023-04-07T16:59:45.846Z,4.43
2023-04-07T17:02:14.101Z,4.22
2023-04-07T17:04:41.017Z,4.20
2023-04-07T17:07:09.090Z,4.30
2023-04-07T17:09:35.885Z,4.20
2023-04-07T17:12:03.289Z,4.32
2023-04-07T17:14:30.344Z,4.50
2023-04-07T17:16:57.392Z,4.40
2023-04-07T17:19:24.113Z,4.32
2023-04-07T17:21:50.646Z,4.30
2023-04-07T17:24:17.293Z,4.85
2023-04-07T17:26:45.142Z,4.60
2023-04-07T17:29:11.572Z,4.88
2023-04-07T17:31:38.247Z,6.28
2023-04-07T17:34:04.886Z,4.97
2023-04-07T17:36:31.617Z,4.70
2023-04-07T17:38:58.616Z,4.88
2023-04-07T17:41:27.049Z,4.65
2023-04-07T17:43:54.778Z,5.28
2023-04-07T17:46:22.233Z,5.60
2023-04-07T17:48:49.551Z,5.20
2023-04-07T17:51:16.411Z,4.95
2023-04-07T17:53:43.062Z,5.30
2023-04-07T17:56:09.614Z,5.75
2023-04-07T17:58:36.217Z,5.40
2023-04-07T18:01:02.944Z,6.35
2023-04-07T18:03:29.806Z,5.18
2023-04-07T18:05:56.460Z,5.97
2023-04-07T18:08:22.996Z,5.65
2023-04-07T18:10:49.442Z,5.90
2023-04-07T18:13:15.945Z,5.97
2023-04-07T18:15:42.549Z,6.35
2023-04-07T18:18:09.274Z,5.63
2023-04-07T18:20:35.960Z,5.65
2023-04-07T18:23:02.901Z,6.37
2023-04-07T18:25:29.487Z,5.97
2023-04-07T18:27:55.937Z,6.38
2023-04-07T18:30:22.501Z,6.60
2023-04-07T18:32:49.440Z,6.15
2023-04-07T18:35:16.127Z,6.97
2023-04-07T18:37:44.229Z,8.23
2023-04-07T18:40:11.418Z,7.88
2023-04-07T18:42:38.083Z,7.28
2023-04-07T18:45:04.892Z,7.22
2023-04-07T18:47:31.522Z,7.50
2023-04-07T18:49:58.015Z,7.30
2023-04-07T18:52:25.817Z,7.95
2023-04-07T18:54:52.522Z,7.72
2023-04-07T18:57:19.028Z,7.88
2023-04-07T18:59:45.676Z,7.33
2023-04-07T19:02:12.634Z,7.15
2023-04-07T19:04:39.539Z,7.95
2023-04-07T19:07:06.618Z,7.55
2023-04-07T19:09:33.216Z,7.50
2023-04-07T19:11:59.797Z,6.97
2023-04-07T19:14:26.366Z,7.60
2023-04-07T19:16:53.204Z,7.43
2023-04-07T19:19:19.850Z,7.28
2023-04-07T19:21:46.408Z,8.02
2023-04-07T19:24:13.062Z,8.07
2023-04-07T19:26:39.681Z,8.20
2023-04-07T19:29:06.143Z,8.70
2023-04-07T19:31:32.807Z,7.75
2023-04-07T19:33:59.498Z,8.43
2023-04-07T19:36:26.149Z,7.90
2023-04-07T19:38:52.795Z,8.07
2023-04-07T19:41:19.394Z,8.10
2023-04-07T19:43:45.883Z,8.55
2023-04-07T19:46:12.523Z,9.73
2023-04-07T19:48:39.126Z,8.23
2023-04-07T19:51:07.287Z,7.95
2023-04-07T19:53:34.083Z,8.48
2023-04-07T19:56:02.138Z,8.90
2023-04-07T19:58:28.716Z,8.73
2023-04-07T20:00:55.454Z,8.27
2023-04-07T20:03:22.210Z,9.80
2023-04-07T20:05:48.958Z,8.40
2023-04-07T20:08:15.483Z,8.93
2023-04-07T20:10:41.939Z,8.45
2023-04-07T20:13:08.534Z,9.63
2023-04-07T20:15:35.320Z,8.88
2023-04-07T20:18:02.011Z,9.43
2023-04-07T20:20:28.606Z,8.88
2023-04-07T20:22:55.172Z,9.98
2023-04-07T20:25:21.946Z,8.67
2023-04-07T20:27:48.474Z,9.10
2023-04-07T20:30:14.962Z,8.88
2023-04-07T20:32:41.755Z,8.88
2023-04-07T20:35:09.208Z,9.32
2023-04-07T20:37:35.747Z,8.77
2023-04-07T20:40:02.764Z,8.52
2023-04-07T20:42:29.239Z,9.23
2023-04-07T20:44:55.715Z,9.63
2023-04-07T20:47:22.307Z,8.35
2023-04-07T20:49:48.847Z,8.80
2023-04-07T20:52:15.321Z,8.93
2023-04-07T20:54:41.939Z,8.93
2023-04-07T20:57:08.513Z,8.75
2023-04-07T20:59:35.062Z,9.50
2023-04-07T21:02:01.704Z,9.10
2023-04-07T21:04:28.570Z,9.40
2023-04-07T21:06:55.143Z,9.38
2023-04-07T21:09:21.649Z,10.27
2023-04-07T21:11:48.187Z,9.75
2023-04-07T21:14:14.604Z,10.23
2023-04-07T21:16:41.153Z,10.60
2023-04-07T21:19:07.676Z,11.00
2023-04-07T21:21:34.329Z,11.38
2023-04-07T21:24:00.773Z,11.07
2023-04-07T21:26:27.332Z,11.47
2023-04-07T21:28:53.949Z,12.10
2023-04-07T21:31:24.638Z,12.88
2023-04-07T21:33:51.198Z,11.80
2023-04-07T21:36:17.916Z,12.27
2023-04-07T21:38:44.581Z,12.23
2023-04-07T21:41:11.146Z,12.60
2023-04-07T21:43:37.750Z,11.75
2023-04-07T21:46:04.433Z,13.85
2023-04-07T21:48:31.124Z,13.82
2023-04-07T21:50:57.648Z,13.33
2023-04-07T21:53:24.215Z,13.73
2023-04-07T21:55:50.722Z,13.10
2023-04-07T21:58:17.216Z,14.25
2023-04-07T22:00:43.676Z,15.27
2023-04-07T22:03:10.558Z,14.77
2023-04-07T22:05:38.320Z,14.52
2023-04-07T22:08:05.071Z,14.88
2023-04-07T22:10:31.589Z,15.10
2023-04-07T22:12:58.033Z,15.30
2023-04-07T22:15:24.489Z,15.77
2023-04-07T22:17:50.988Z,15.82
2023-04-07T22:20:17.514Z,16.42
2023-04-07T22:22:44.065Z,17.10
2023-04-07T22:25:10.752Z,16.75
2023-04-07T22:27:37.312Z,17.10
2023-04-07T22:30:04.170Z,16.42
2023-04-07T22:32:30.764Z,17.08
2023-04-07T22:34:57.902Z,16.60
2023-04-07T22:37:24.415Z,17.10
2023-04-07T22:39:51.072Z,17.67
2023-04-07T22:42:17.549Z,15.60
2023-04-07T22:44:44.036Z,17.50
2023-04-07T22:47:10.807Z,16.40
2023-04-07T22:49:37.348Z,16.58
2023-04-07T22:52:04.010Z,15.60
2023-04-07T22:54:30.616Z,16.88
2023-04-07T22:56:57.096Z,16.70
2023-04-07T22:59:23.597Z,16.60
2023-04-07T23:01:50.114Z,16.60
2023-04-07T23:04:17.120Z,16.10
2023-04-07T23:06:43.803Z,16.38
2023-04-07T23:09:10.642Z,15.88
2023-04-07T23:11:37.159Z,16.58
2023-04-07T23:14:03.742Z,16.30
2023-04-07T23:16:30.230Z,18.33
2023-04-07T23:18:56.715Z,15.98
2023-04-07T23:21:23.461Z,17.13
2023-04-07T23:23:50.077Z,14.73
2023-04-07T23:26:16.674Z,16.08
2023-04-07T23:28:43.090Z,14.13
2023-04-07T23:31:09.605Z,14.35
2023-04-07T23:33:36.047Z,14.85
2023-04-07T23:36:02.599Z,14.38
2023-04-07T23:38:29.177Z,15.50
2023-04-07T23:40:55.819Z,13.90
2023-04-07T23:43:22.372Z,14.55
2023-04-07T23:45:48.980Z,14.30
2023-04-07T23:48:15.792Z,14.13
2023-04-07T23:50:42.416Z,14.65
2023-04-07T23:53:09.206Z,14.30
2023-04-07T23:55:35.769Z,16.02
2023-04-07T23:58:02.234Z,13.40
